createdAt,value
2023-01-01T00:00:41.602Z,86.27
2023-01-01T00:03:08.176Z,53.77
2023-01-01T00:05:37.898Z,37.30
2023-01-01T00:08:05.227Z,35.93
2023-01-01T00:10:33.057Z,34.30
2023-01-01T00:13:00.033Z,42.60
2023-01-01T00:15:27.402Z,36.87
2023-01-01T00:17:54.528Z,36.20
2023-01-01T00:20:21.231Z,37.70
2023-01-01T00:22:56.282Z,45.60
2023-01-01T00:25:23.983Z,51.80
2023-01-01T00:27:50.737Z,42.40
2023-01-01T00:30:17.308Z,37.07
2023-01-01T00:32:55.205Z,44.47
2023-01-01T00:35:25.649Z,43.57
2023-01-01T00:37:53.731Z,40.83
2023-01-01T00:40:20.235Z,34.13
2023-01-01T00:42:46.723Z,41.57
2023-01-01T00:45:18.801Z,34.60
2023-01-01T00:47:47.404Z,37.03
2023-01-01T00:50:13.975Z,34.13
2023-01-01T00:52:40.436Z,41.90
2023-01-01T00:55:07.727Z,45.97
2023-01-01T00:57:34.441Z,42.50
2023-01-01T01:00:00.927Z,47.23
2023-01-01T01:02:27.654Z,53.40
2023-01-01T01:04:54.217Z,45.87
2023-01-01T01:07:20.702Z,43.73
2023-01-01T01:09:47.182Z,40.37
2023-01-01T01:12:17.990Z,45.00
2023-01-01T01:14:46.256Z,48.60
2023-01-01T01:17:12.733Z,39.47
2023-01-01T01:19:39.192Z,39.43
2023-01-01T01:22:05.678Z,41.03
2023-01-01T01:24:32.180Z,39.63
2023-01-01T01:26:58.700Z,35.63
2023-01-01T01:29:25.282Z,44.30
2023-01-01T01:31:51.813Z,36.73
2023-01-01T01:34:22.495Z,40.33
2023-01-01T01:36:52.451Z,38.80
2023-01-01T01:39:19.368Z,38.80
2023-01-01T01:41:45.849Z,34.37
2023-01-01T01:46:30.160Z,41.23
2023-01-01T01:49:05.103Z,48.53
2023-01-01T01:51:38.652Z,42.63
2023-01-01T01:54:16.803Z,45.83
2023-01-01T01:56:51.488Z,41.57
2023-01-01T01:59:20.488Z,42.73
2023-01-01T02:01:47.097Z,43.33
2023-01-01T02:04:13.810Z,44.40
2023-01-01T02:06:40.961Z,43.27
2023-01-01T02:09:09.110Z,50.57
2023-01-01T02:11:35.614Z,46.93
2023-01-01T02:14:03.902Z,46.67
2023-01-01T02:16:46.640Z,40.67
2023-01-01T02:24:09.356Z,41.07
2023-01-01T02:27:10.959Z,46.90
2023-01-01T02:30:30.261Z,50.77
2023-01-01T02:33:16.745Z,49.43
2023-01-01T02:35:51.397Z,52.77
2023-01-01T02:38:40.568Z,51.23
2023-01-01T02:41:29.407Z,57.03
2023-01-01T02:48:52.564Z,48.47
2023-01-01T02:53:26.330Z,56.73
2023-01-01T02:56:31.960Z,53.47
2023-01-01T03:00:57.711Z,49.40
2023-01-01T03:04:12.301Z,51.87
2023-01-01T03:07:13.382Z,46.30
2023-01-01T03:09:58.334Z,53.73
2023-01-01T03:12:40.045Z,55.00
2023-01-01T03:15:32.407Z,54.30
2023-01-01T03:18:35.578Z,45.70
2023-01-01T03:21:06.645Z,54.87
2023-01-01T03:23:49.687Z,58.53
2023-01-01T03:26:20.491Z,53.07
2023-01-01T03:28:55.821Z,64.00
2023-01-01T03:31:26.115Z,54.43
2023-01-01T03:34:38.936Z,48.13
2023-01-01T03:37:17.492Z,51.93
2023-01-01T03:39:56.929Z,48.03
2023-01-01T03:43:08.021Z,44.40
2023-01-01T03:45:45.587Z,49.40
2023-01-01T03:48:12.676Z,44.13
2023-01-01T03:53:46.493Z,50.23
2023-01-01T03:56:46.793Z,47.67
2023-01-01T03:59:25.647Z,44.67
2023-01-01T04:01:57.413Z,47.13
2023-01-01T04:04:26.305Z,44.50
2023-01-01T04:06:54.462Z,44.80
2023-01-01T04:09:28.352Z,46.20
2023-01-01T04:12:00.763Z,40.57
2023-01-01T04:14:42.082Z,48.63
2023-01-01T04:17:11.742Z,50.07
2023-01-01T04:19:38.291Z,40.40
2023-01-01T04:22:06.224Z,49.17
2023-01-01T04:24:32.675Z,41.90
2023-01-01T04:26:59.117Z,36.93
2023-01-01T04:29:25.892Z,42.13
2023-01-01T04:31:52.397Z,38.43
2023-01-01T04:34:19.002Z,51.57
2023-01-01T04:36:45.459Z,42.23
2023-01-01T04:39:12.104Z,34.77
2023-01-01T04:41:38.661Z,39.43
2023-01-01T04:44:05.318Z,32.60
2023-01-01T04:46:31.885Z,36.73
2023-01-01T04:48:58.385Z,37.27
2023-01-01T04:51:24.850Z,41.93
2023-01-01T04:53:51.321Z,46.07
2023-01-01T04:56:21.126Z,35.57
2023-01-01T04:58:48.561Z,36.37
2023-01-01T05:01:27.764Z,38.53
2023-01-01T05:03:55.973Z,43.30
2023-01-01T05:06:23.493Z,33.87
2023-01-01T05:08:56.620Z,35.67
2023-01-01T05:11:27.659Z,30.83
2023-01-01T05:13:57.571Z,30.03
2023-01-01T05:16:31.691Z,36.83
2023-01-01T05:18:58.252Z,33.20
2023-01-01T05:21:31.705Z,32.53
2023-01-01T05:24:01.953Z,30.97
2023-01-01T05:26:32.363Z,30.93
2023-01-01T05:29:01.302Z,21.73
2023-01-01T05:31:32.251Z,11.43
2023-01-01T05:36:37.615Z,26.33
2023-01-01T05:39:06.859Z,5.60
2023-01-01T05:41:35.574Z,21.43
2023-01-01T05:44:04.834Z,17.90
2023-01-01T05:46:31.875Z,19.70
2023-01-01T05:48:58.735Z,26.87
2023-01-01T05:51:30.137Z,14.60
2023-01-01T05:53:58.400Z,22.00
2023-01-01T05:56:26.340Z,21.10
2023-01-01T05:58:53.774Z,25.97
2023-01-01T06:01:26.688Z,23.60
2023-01-01T06:03:56.414Z,19.37
2023-01-01T06:06:27.996Z,20.10
2023-01-01T06:08:58.259Z,15.90
2023-01-01T06:11:26.041Z,19.03
2023-01-01T06:13:55.412Z,18.40
2023-01-01T06:16:26.192Z,17.13
2023-01-01T06:18:53.211Z,18.57
2023-01-01T06:21:23.795Z,10.60
2023-01-01T06:23:50.494Z,14.67
2023-01-01T06:26:30.449Z,13.63
2023-01-01T06:28:58.014Z,11.67
2023-01-01T06:31:26.591Z,14.33
2023-01-01T06:33:53.099Z,15.33
2023-01-01T06:36:22.952Z,17.03
2023-01-01T06:38:53.941Z,8.93
2023-01-01T06:41:26.459Z,6.53
2023-01-01T06:43:56.372Z,11.23
2023-01-01T06:46:35.076Z,9.47
2023-01-01T06:49:10.478Z,8.07
2023-01-01T06:51:43.321Z,4.37
2023-01-01T06:54:10.862Z,12.23
2023-01-01T06:56:41.058Z,10.67
2023-01-01T06:59:07.566Z,9.90
2023-01-01T07:01:36.643Z,9.07
2023-01-01T07:04:11.256Z,14.87
2023-01-01T07:06:39.069Z,13.80
2023-01-01T07:09:07.057Z,8.50
2023-01-01T07:11:34.628Z,5.10
2023-01-01T07:14:01.657Z,6.10
2023-01-01T07:16:28.172Z,11.47
2023-01-01T07:18:54.661Z,8.30
2023-01-01T07:22:03.655Z,7.83
2023-01-01T07:24:30.133Z,9.03
2023-01-01T07:26:56.631Z,13.97
2023-01-01T07:29:23.114Z,18.53
2023-01-01T07:31:49.592Z,15.83
2023-01-01T07:34:19.049Z,18.40
2023-01-01T07:36:45.624Z,15.93
2023-01-01T07:39:12.300Z,11.77
2023-01-01T07:41:38.793Z,12.47
2023-01-01T07:44:05.639Z,11.77
2023-01-01T07:46:35.514Z,8.93
2023-01-01T07:49:02.117Z,5.83
2023-01-01T07:51:28.609Z,10.13
2023-01-01T07:53:57.246Z,8.13
2023-01-01T07:56:27.365Z,11.37
2023-01-01T07:58:53.843Z,8.60
2023-01-01T08:01:20.615Z,6.40
2023-01-01T08:03:52.131Z,11.27
2023-01-01T08:06:18.606Z,11.70
2023-01-01T08:08:45.077Z,11.17
2023-01-01T08:11:11.532Z,11.23
2023-01-01T08:13:38.058Z,10.27
2023-01-01T08:16:05.175Z,14.10
2023-01-01T08:18:31.678Z,15.47
2023-01-01T08:20:58.230Z,11.03
2023-01-01T08:23:24.739Z,11.40
2023-01-01T08:25:51.334Z,13.10
2023-01-01T08:28:17.806Z,18.00
2023-01-01T08:30:44.279Z,15.17
2023-01-01T08:33:10.763Z,14.10
2023-01-01T08:35:41.158Z,13.97
2023-01-01T08:38:10.982Z,10.73
2023-01-01T08:40:37.639Z,10.07
2023-01-01T08:43:04.094Z,8.93
2023-01-01T08:45:30.570Z,10.73
2023-01-01T08:47:57.064Z,10.40
2023-01-01T08:50:23.554Z,10.43
2023-01-01T08:52:50.024Z,9.03
2023-01-01T08:55:16.582Z,9.77
2023-01-01T08:57:43.049Z,7.17
2023-01-01T09:00:12.825Z,8.37
2023-01-01T09:02:39.409Z,10.10
2023-01-01T09:05:07.317Z,10.67
2023-01-01T09:07:33.799Z,8.33
2023-01-01T09:10:00.247Z,11.63
2023-01-01T09:12:26.935Z,9.63
2023-01-01T09:14:53.386Z,7.70
2023-01-01T09:17:19.865Z,9.43
2023-01-01T09:19:46.355Z,8.17
2023-01-01T09:22:12.993Z,7.90
2023-01-01T09:24:39.483Z,40.00
2023-01-01T09:27:05.987Z,10.00
2023-01-01T09:29:32.813Z,13.00
2023-01-01T09:31:59.387Z,11.53
2023-01-01T09:34:25.877Z,11.53
2023-01-01T09:36:52.371Z,11.07
2023-01-01T09:39:18.834Z,10.27
2023-01-01T09:42:42.934Z,11.23
2023-01-01T09:45:34.263Z,10.33
2023-01-01T09:48:10.879Z,11.90
2023-01-01T09:50:43.667Z,12.87
2023-01-01T09:53:37.122Z,7.47
2023-01-01T09:56:05.950Z,10.43
2023-01-01T09:58:37.384Z,8.40
2023-01-01T10:03:41.280Z,9.83
2023-01-01T10:06:31.859Z,11.37
2023-01-01T10:10:27.449Z,11.13
2023-01-01T10:13:15.168Z,11.73
2023-01-01T10:15:57.385Z,14.60
2023-01-01T10:18:32.720Z,11.10
2023-01-01T10:22:02.142Z,10.70
2023-01-01T10:24:56.584Z,10.97
2023-01-01T10:27:47.337Z,14.07
2023-01-01T10:30:18.638Z,12.00
2023-01-01T10:32:52.601Z,9.70
2023-01-01T10:35:33.159Z,5.97
2023-01-01T10:38:02.662Z,5.80
2023-01-01T10:40:30.388Z,7.23
2023-01-01T10:43:00.366Z,28.80
2023-01-01T10:46:01.752Z,22.17
2023-01-01T10:48:30.903Z,15.70
2023-01-01T10:51:04.830Z,10.87
2023-01-01T10:53:37.278Z,12.10
2023-01-01T10:56:24.607Z,10.73
2023-01-01T10:58:57.999Z,10.43
2023-01-01T11:01:31.097Z,13.53
2023-01-01T11:04:31.332Z,11.50
2023-01-01T11:06:58.313Z,12.20
2023-01-01T11:09:28.549Z,10.67
2023-01-01T11:12:11.818Z,8.40
2023-01-01T11:14:55.254Z,9.33
2023-01-01T11:17:33.698Z,11.73
2023-01-01T11:20:03.418Z,11.27
2023-01-01T11:22:52.185Z,17.30
2023-01-01T11:25:55.227Z,18.77
2023-01-01T11:28:21.782Z,14.83
2023-01-01T11:31:19.298Z,15.57
2023-01-01T11:33:51.862Z,12.40
2023-01-01T11:36:34.162Z,17.57
2023-01-01T11:39:25.862Z,15.33
2023-01-01T11:41:57.975Z,13.27
2023-01-01T11:44:44.028Z,17.70
2023-01-01T11:47:35.193Z,14.23
2023-01-01T11:50:35.841Z,16.97
2023-01-01T11:53:31.029Z,14.67
2023-01-01T11:56:26.339Z,13.80
2023-01-01T11:59:02.665Z,12.00
2023-01-01T12:01:57.396Z,11.17
2023-01-01T12:04:49.731Z,10.53
2023-01-01T12:07:23.792Z,13.83
2023-01-01T12:10:05.661Z,16.90
2023-01-01T12:12:45.851Z,11.90
2023-01-01T12:16:14.923Z,13.13
2023-01-01T12:19:30.604Z,13.67
2023-01-01T12:22:00.277Z,17.13
2023-01-01T12:24:36.826Z,9.30
2023-01-01T12:28:02.740Z,10.77
2023-01-01T12:34:05.425Z,10.63
2023-01-01T12:38:32.876Z,20.30
2023-01-01T12:41:32.593Z,13.10
2023-01-01T12:48:28.917Z,9.53
2023-01-01T12:51:34.408Z,11.87
2023-01-01T12:56:05.100Z,8.87
2023-01-01T12:59:02.778Z,12.53
2023-01-01T13:01:34.706Z,7.30
2023-01-01T13:04:20.938Z,9.53
2023-01-01T13:07:05.136Z,9.50
2023-01-01T13:09:39.099Z,11.40
2023-01-01T13:12:20.774Z,11.20
2023-01-01T13:14:51.732Z,11.80
2023-01-01T13:17:28.115Z,8.57
2023-01-01T13:20:23.534Z,8.63
2023-01-01T13:22:50.136Z,9.27
2023-01-01T13:25:23.963Z,19.27
2023-01-01T13:28:10.436Z,7.67
2023-01-01T13:30:47.642Z,12.50
2023-01-01T13:33:34.328Z,11.00
2023-01-01T13:38:01.685Z,9.83
2023-01-01T13:40:33.443Z,7.77
2023-01-01T13:43:19.736Z,13.07
2023-01-01T13:49:29.570Z,9.03
2023-01-01T13:57:37.772Z,15.80
2023-01-01T14:00:24.813Z,11.80
2023-01-01T14:03:15.965Z,14.93
2023-01-01T14:05:58.961Z,12.23
2023-01-01T14:08:34.949Z,16.43
2023-01-01T14:11:16.199Z,13.30
2023-01-01T14:13:42.671Z,10.37
2023-01-01T14:16:12.975Z,10.60
2023-01-01T14:18:49.796Z,12.83
2023-01-01T14:21:24.209Z,13.90
2023-01-01T14:23:57.216Z,8.30
2023-01-01T14:26:27.789Z,11.23
2023-01-01T14:29:02.650Z,15.40
2023-01-01T14:31:35.523Z,10.87
2023-01-01T14:34:15.219Z,6.37
2023-01-01T14:36:52.880Z,10.23
2023-01-01T14:39:35.644Z,10.13
2023-01-01T14:42:17.044Z,8.07
2023-01-01T14:44:48.647Z,6.70
2023-01-01T14:47:30.267Z,12.03
2023-01-01T14:50:17.503Z,15.33
2023-01-01T14:52:44.270Z,20.60
2023-01-01T14:55:18.593Z,22.77
2023-01-01T14:57:53.385Z,20.47
2023-01-01T15:00:27.913Z,24.63
2023-01-01T15:02:54.551Z,28.40
2023-01-01T15:05:35.885Z,36.80
2023-01-01T15:08:07.016Z,32.90
2023-01-01T15:10:37.423Z,35.63
2023-01-01T15:13:07.707Z,37.07
2023-01-01T15:15:47.191Z,31.93
2023-01-01T15:18:45.761Z,33.10
2023-01-01T15:21:38.283Z,26.27
2023-01-01T15:24:16.909Z,24.70
2023-01-01T15:26:58.698Z,20.13
2023-01-01T15:29:46.579Z,18.00
2023-01-01T15:32:15.916Z,13.87
2023-01-01T15:35:23.680Z,17.73
2023-01-01T15:38:03.661Z,19.53
2023-01-01T15:40:34.257Z,25.37
2023-01-01T15:43:25.495Z,15.07
2023-01-01T15:46:19.970Z,18.53
2023-01-01T15:48:50.336Z,23.40
2023-01-01T15:51:24.273Z,24.77
2023-01-01T15:54:01.357Z,21.43
2023-01-01T15:56:33.217Z,19.20
2023-01-01T15:59:09.427Z,20.43
2023-01-01T16:01:41.668Z,27.23
2023-01-01T16:04:29.187Z,27.53
2023-01-01T16:06:58.110Z,29.23
2023-01-01T16:09:24.593Z,23.23
2023-01-01T16:11:54.263Z,31.23
2023-01-01T16:14:20.963Z,24.20
2023-01-01T16:16:56.483Z,23.40
2023-01-01T16:19:23.951Z,21.43
2023-01-01T16:21:50.486Z,24.47
2023-01-01T16:24:18.869Z,18.53
2023-01-01T16:26:46.467Z,20.73
2023-01-01T16:29:13.850Z,27.43
2023-01-01T16:31:41.646Z,31.17
2023-01-01T16:34:13.529Z,35.37
2023-01-01T16:36:40.445Z,25.60
2023-01-01T16:39:06.932Z,29.57
2023-01-01T16:41:33.411Z,24.27
2023-01-01T16:44:00.064Z,27.03
2023-01-01T16:46:27.195Z,25.77
2023-01-01T16:48:53.800Z,24.53
2023-01-01T16:51:24.580Z,32.83
2023-01-01T16:53:51.048Z,24.83
2023-01-01T16:56:17.747Z,22.80
2023-01-01T16:58:50.017Z,27.83
2023-01-01T17:01:17.989Z,25.60
2023-01-01T17:03:44.613Z,24.93
2023-01-01T17:06:11.380Z,26.97
2023-01-01T17:08:38.570Z,24.70
2023-01-01T17:11:16.015Z,27.17
2023-01-01T17:13:47.398Z,22.67
2023-01-01T17:16:21.267Z,28.00
2023-01-01T17:19:14.381Z,25.20
2023-01-01T17:21:42.614Z,25.27
2023-01-01T17:24:09.311Z,28.17
2023-01-01T17:26:35.808Z,27.33
2023-01-01T17:29:04.371Z,29.10
2023-01-01T17:31:31.048Z,28.40
2023-01-01T17:33:58.637Z,22.20
2023-01-01T17:36:28.289Z,23.33
2023-01-01T17:38:55.923Z,25.60
2023-01-01T17:41:23.326Z,31.23
2023-01-01T17:43:51.349Z,29.07
2023-01-01T17:46:35.752Z,28.93
2023-01-01T17:49:04.351Z,27.60
2023-01-01T17:51:30.856Z,27.07
2023-01-01T17:53:57.441Z,29.97
2023-01-01T17:56:24.435Z,29.20
2023-01-01T17:58:52.772Z,25.63
2023-01-01T18:01:32.467Z,29.37
2023-01-01T18:04:05.810Z,25.07
2023-01-01T18:06:40.284Z,19.57
2023-01-01T18:09:12.520Z,23.70
2023-01-01T18:11:39.496Z,19.20
2023-01-01T18:14:06.482Z,20.70
2023-01-01T18:16:36.723Z,22.93
2023-01-01T18:19:04.634Z,25.60
2023-01-01T18:21:32.804Z,17.03
2023-01-01T18:24:02.126Z,20.30
2023-01-01T18:26:30.719Z,20.90
2023-01-01T18:29:01.904Z,17.43
2023-01-01T18:31:32.420Z,19.37
2023-01-01T18:34:02.585Z,18.33
2023-01-01T18:36:32.253Z,17.80
2023-01-01T18:39:08.434Z,19.57
2023-01-01T18:43:14.674Z,21.70
2023-01-01T18:45:41.137Z,17.53
2023-01-01T18:48:15.021Z,31.10
2023-01-01T18:50:41.489Z,22.93
2023-01-01T18:53:21.405Z,18.07
2023-01-01T18:55:53.168Z,16.80
2023-01-01T18:58:24.720Z,21.57
2023-01-01T19:00:53.673Z,17.50
2023-01-01T19:03:28.757Z,24.33
2023-01-01T19:05:57.756Z,21.33
2023-01-01T19:08:29.242Z,18.87
2023-01-01T19:11:02.084Z,19.43
2023-01-01T19:13:42.018Z,23.63
2023-01-01T19:16:29.658Z,18.90
2023-01-01T19:19:24.524Z,17.87
2023-01-01T19:22:20.774Z,19.93
2023-01-01T19:24:47.289Z,21.97
2023-01-01T19:27:18.239Z,25.27
2023-01-01T19:29:47.888Z,27.83
2023-01-01T19:32:15.070Z,17.77
2023-01-01T19:34:41.523Z,22.70
2023-01-01T19:37:09.950Z,17.13
2023-01-01T19:39:38.051Z,16.73
2023-01-01T19:42:06.227Z,20.27
2023-01-01T19:44:35.116Z,44.70
2023-01-01T19:47:04.038Z,25.00
2023-01-01T19:49:30.569Z,25.50
2023-01-01T19:51:57.107Z,25.80
2023-01-01T19:54:23.585Z,64.33
2023-01-01T19:56:50.497Z,24.07
2023-01-01T19:59:17.519Z,20.00
2023-01-01T20:01:44.175Z,23.50
2023-01-01T20:04:10.938Z,25.47
2023-01-01T20:06:37.553Z,33.50
2023-01-01T20:09:04.214Z,20.60
2023-01-01T20:11:31.237Z,18.93
2023-01-01T20:13:57.718Z,18.97
2023-01-01T20:16:24.331Z,17.40
2023-01-01T20:18:50.877Z,22.40
2023-01-01T20:21:35.683Z,19.17
2023-01-01T20:24:02.193Z,16.23
2023-01-01T20:26:28.679Z,63.30
2023-01-01T20:29:13.813Z,34.63
2023-01-01T20:31:41.092Z,21.97
2023-01-01T20:34:07.607Z,23.20
2023-01-01T20:36:52.329Z,24.87
2023-01-01T20:39:18.797Z,32.40
2023-01-01T20:41:45.315Z,28.47
2023-01-01T20:44:11.818Z,27.90
2023-01-01T20:46:38.488Z,16.23
2023-01-01T20:49:05.187Z,15.73
2023-01-01T20:51:32.031Z,17.93
2023-01-01T20:53:58.514Z,18.80
2023-01-01T20:59:24.249Z,20.90
2023-01-01T21:01:59.167Z,16.43
2023-01-01T21:04:25.881Z,18.73
2023-01-01T21:06:52.423Z,18.20
2023-01-01T21:09:18.904Z,15.50
2023-01-01T21:11:45.802Z,16.67
2023-01-01T21:14:12.289Z,16.50
2023-01-01T21:16:43.813Z,15.13
2023-01-01T21:19:11.802Z,15.97
2023-01-01T21:21:55.931Z,13.10
2023-01-01T21:24:36.783Z,17.20
2023-01-01T21:27:24.040Z,22.53
2023-01-01T21:29:55.290Z,16.67
2023-01-01T21:32:40.706Z,13.37
2023-01-01T21:35:30.926Z,16.90
2023-01-01T21:37:59.835Z,16.30
2023-01-01T21:40:53.896Z,16.13
2023-01-01T21:43:49.577Z,17.17
2023-01-01T21:46:33.682Z,16.50
2023-01-01T21:50:52.353Z,13.60
2023-01-01T21:53:32.652Z,14.33
2023-01-01T21:56:26.357Z,14.63
2023-01-01T21:59:11.965Z,14.67
2023-01-01T22:01:43.792Z,17.47
2023-01-01T22:04:25.409Z,17.07
2023-01-01T22:07:09.510Z,16.93
2023-01-01T22:09:52.719Z,15.23
2023-01-01T22:12:28.041Z,15.10
2023-01-01T22:14:58.694Z,14.77
2023-01-01T22:17:36.643Z,14.07
2023-01-01T22:20:39.838Z,14.33
2023-01-01T22:23:40.718Z,14.83
2023-01-01T22:28:48.085Z,16.90
2023-01-01T22:31:25.576Z,15.67
2023-01-01T22:33:59.625Z,19.57
2023-01-01T22:36:29.973Z,12.80
2023-01-01T22:39:17.032Z,17.00
2023-01-01T22:41:43.552Z,24.97
2023-01-01T22:44:11.629Z,18.30
2023-01-01T22:46:40.822Z,17.37
2023-01-01T22:49:38.003Z,14.93
2023-01-01T22:52:04.719Z,12.90
2023-01-01T22:54:31.203Z,18.47
2023-01-01T22:56:57.687Z,14.10
2023-01-01T22:59:24.266Z,12.40
2023-01-01T23:01:50.799Z,17.30
2023-01-01T23:04:17.327Z,20.60
2023-01-01T23:06:43.981Z,13.20
2023-01-01T23:09:11.740Z,27.17
2023-01-01T23:11:38.842Z,22.00
2023-01-01T23:14:23.861Z,27.60
2023-01-01T23:16:50.353Z,29.67
2023-01-01T23:19:16.826Z,22.43
2023-01-01T23:21:43.621Z,17.73
2023-01-01T23:24:15.881Z,22.27
2023-01-01T23:26:43.399Z,20.20
2023-01-01T23:29:12.307Z,15.70
2023-01-01T23:31:39.960Z,18.47
2023-01-01T23:34:06.872Z,18.97
2023-01-01T23:36:34.295Z,19.70
2023-01-01T23:39:00.750Z,15.03
2023-01-01T23:41:27.222Z,13.93
2023-01-01T23:43:53.711Z,10.70
2023-01-01T23:46:20.696Z,17.13
2023-01-01T23:48:48.517Z,16.87
2023-01-01T23:51:16.652Z,14.07
2023-01-01T23:53:43.178Z,12.57
2023-01-01T23:56:10.065Z,17.67
2023-01-01T23:58:36.517Z,14.93
